sensor_id;sensor_type;location;lat;lon;timestamp;P1;durP1;ratioP1;P2;durP2;ratioP2
57800;SDS011;43627;42.728;23.256;2023-04-01T00:01:26;31.38;;;12.80;;
57800;SDS011;43627;42.728;23.256;2023-04-01T00:03:52;25.05;;;12.38;;
57800;SDS011;43627;42.728;23.256;2023-04-01T00:06:20;28.85;;;11.57;;
57800;SDS011;43627;42.728;23.256;2023-04-01T00:08:47;29.63;;;11.63;;
57800;SDS011;43627;42.728;23.256;2023-04-01T00:11:14;25.65;;;10.88;;
57800;SDS011;43627;42.728;23.256;2023-04-01T00:13:42;23.80;;;10.18;;
57800;SDS011;43627;42.728;23.256;2023-04-01T00:16:09;21.63;;;10.10;;
57800;SDS011;43627;42.728;23.256;2023-04-01T00:18:47;27.60;;;10.65;;
57800;SDS011;43627;42.728;23.256;2023-04-01T00:21:14;23.50;;;10.23;;
57800;SDS011;43627;42.728;23.256;2023-04-01T00:23:42;24.77;;;10.75;;
57800;SDS011;43627;42.728;23.256;2023-04-01T00:26:10;27.25;;;10.93;;
57800;SDS011;43627;42.728;23.256;2023-04-01T00:28:38;30.63;;;10.88;;
57800;SDS011;43627;42.728;23.256;2023-04-01T00:31:06;20.90;;;9.90;;
57800;SDS011;43627;42.728;23.256;2023-04-01T00:33:33;25.10;;;11.43;;
57800;SDS011;43627;42.728;23.256;2023-04-01T00:36:09;30.23;;;11.70;;
57800;SDS011;43627;42.728;23.256;2023-04-01T00:38:36;28.88;;;11.90;;
57800;SDS011;43627;42.728;23.256;2023-04-01T00:41:04;26.15;;;11.00;;
57800;SDS011;43627;42.728;23.256;2023-04-01T00:43:32;22.58;;;11.60;;
57800;SDS011;43627;42.728;23.256;2023-04-01T00:45:59;27.75;;;11.30;;
57800;SDS011;43627;42.728;23.256;2023-04-01T00:48:30;22.73;;;11.05;;
57800;SDS011;43627;42.728;23.256;2023-04-01T00:54:01;27.20;;;9.83;;
57800;SDS011;43627;42.728;23.256;2023-04-01T00:56:45;21.70;;;8.73;;
57800;SDS011;43627;42.728;23.256;2023-04-01T00:59:18;23.20;;;9.75;;
57800;SDS011;43627;42.728;23.256;2023-04-01T01:01:49;18.60;;;8.32;;
57800;SDS011;43627;42.728;23.256;2023-04-01T01:09:53;22.88;;;9.93;;
57800;SDS011;43627;42.728;23.256;2023-04-01T01:12:39;22.23;;;9.30;;
57800;SDS011;43627;42.728;23.256;2023-04-01T01:15:15;20.02;;;9.02;;
57800;SDS011;43627;42.728;23.256;2023-04-01T01:31:37;256.30;;;58.20;;
57800;SDS011;43627;42.728;23.256;2023-04-01T01:34:16;36.95;;;12.68;;
57800;SDS011;43627;42.728;23.256;2023-04-01T01:36:55;23.13;;;11.50;;
57800;SDS011;43627;42.728;23.256;2023-04-01T01:39:26;31.00;;;11.85;;
57800;SDS011;43627;42.728;23.256;2023-04-01T01:41:57;30.40;;;14.30;;
57800;SDS011;43627;42.728;23.256;2023-04-01T01:44:27;27.73;;;11.68;;
57800;SDS011;43627;42.728;23.256;2023-04-01T01:46:56;24.50;;;11.48;;
57800;SDS011;43627;42.728;23.256;2023-04-01T01:49:24;29.27;;;11.52;;
57800;SDS011;43627;42.728;23.256;2023-04-01T01:51:51;26.38;;;10.18;;
57800;SDS011;43627;42.728;23.256;2023-04-01T01:54:18;21.83;;;10.57;;
57800;SDS011;43627;42.728;23.256;2023-04-01T01:56:46;25.30;;;12.75;;
57800;SDS011;43627;42.728;23.256;2023-04-01T01:59:17;28.58;;;12.80;;
57800;SDS011;43627;42.728;23.256;2023-04-01T02:01:50;34.05;;;16.77;;
57800;SDS011;43627;42.728;23.256;2023-04-01T02:04:19;40.30;;;21.00;;
57800;SDS011;43627;42.728;23.256;2023-04-01T02:06:50;33.35;;;19.05;;
57800;SDS011;43627;42.728;23.256;2023-04-01T02:09:22;36.28;;;19.85;;
57800;SDS011;43627;42.728;23.256;2023-04-01T02:11:50;33.80;;;18.10;;
57800;SDS011;43627;42.728;23.256;2023-04-01T02:14:22;38.90;;;20.20;;
57800;SDS011;43627;42.728;23.256;2023-04-01T02:19:38;32.70;;;15.38;;
57800;SDS011;43627;42.728;23.256;2023-04-01T02:22:11;32.63;;;16.77;;
57800;SDS011;43627;42.728;23.256;2023-04-01T02:24:42;29.23;;;15.40;;
57800;SDS011;43627;42.728;23.256;2023-04-01T02:27:11;32.75;;;16.25;;
57800;SDS011;43627;42.728;23.256;2023-04-01T02:29:38;37.67;;;17.73;;
57800;SDS011;43627;42.728;23.256;2023-04-01T02:32:06;30.67;;;13.82;;
57800;SDS011;43627;42.728;23.256;2023-04-01T02:34:35;33.63;;;16.45;;
57800;SDS011;43627;42.728;23.256;2023-04-01T02:37:02;27.10;;;14.05;;
57800;SDS011;43627;42.728;23.256;2023-04-01T02:39:29;36.05;;;18.23;;
57800;SDS011;43627;42.728;23.256;2023-04-01T02:41:56;31.02;;;15.73;;
57800;SDS011;43627;42.728;23.256;2023-04-01T02:44:23;35.42;;;18.00;;
57800;SDS011;43627;42.728;23.256;2023-04-01T02:46:50;37.28;;;17.27;;
57800;SDS011;43627;42.728;23.256;2023-04-01T02:49:16;41.10;;;17.80;;
57800;SDS011;43627;42.728;23.256;2023-04-01T02:51:43;35.28;;;17.85;;
57800;SDS011;43627;42.728;23.256;2023-04-01T02:54:10;37.97;;;16.27;;
57800;SDS011;43627;42.728;23.256;2023-04-01T02:56:37;34.20;;;14.70;;
57800;SDS011;43627;42.728;23.256;2023-04-01T02:59:04;24.83;;;11.52;;
57800;SDS011;43627;42.728;23.256;2023-04-01T03:01:30;32.13;;;13.15;;
57800;SDS011;43627;42.728;23.256;2023-04-01T03:03:58;28.02;;;10.77;;
57800;SDS011;43627;42.728;23.256;2023-04-01T03:06:25;23.58;;;10.38;;
57800;SDS011;43627;42.728;23.256;2023-04-01T03:08:52;24.02;;;10.13;;
57800;SDS011;43627;42.728;23.256;2023-04-01T03:11:18;23.08;;;9.10;;
57800;SDS011;43627;42.728;23.256;2023-04-01T03:13:45;25.30;;;10.20;;
57800;SDS011;43627;42.728;23.256;2023-04-01T03:16:12;22.23;;;9.88;;
57800;SDS011;43627;42.728;23.256;2023-04-01T03:18:39;20.13;;;8.82;;
57800;SDS011;43627;42.728;23.256;2023-04-01T03:21:16;22.58;;;10.05;;
57800;SDS011;43627;42.728;23.256;2023-04-01T03:23:45;21.52;;;9.52;;
57800;SDS011;43627;42.728;23.256;2023-04-01T03:26:12;19.73;;;7.68;;
57800;SDS011;43627;42.728;23.256;2023-04-01T03:28:39;20.38;;;9.00;;
57800;SDS011;43627;42.728;23.256;2023-04-01T03:31:06;18.98;;;8.73;;
57800;SDS011;43627;42.728;23.256;2023-04-01T03:33:33;21.67;;;8.88;;
57800;SDS011;43627;42.728;23.256;2023-04-01T03:35:59;19.58;;;9.02;;
57800;SDS011;43627;42.728;23.256;2023-04-01T03:38:26;24.05;;;8.60;;
57800;SDS011;43627;42.728;23.256;2023-04-01T03:40:53;23.02;;;8.65;;
57800;SDS011;43627;42.728;23.256;2023-04-01T03:43:20;21.13;;;8.75;;
57800;SDS011;43627;42.728;23.256;2023-04-01T03:45:47;16.23;;;7.45;;
57800;SDS011;43627;42.728;23.256;2023-04-01T03:48:15;25.92;;;11.05;;
57800;SDS011;43627;42.728;23.256;2023-04-01T03:50:42;30.13;;;12.25;;
57800;SDS011;43627;42.728;23.256;2023-04-01T03:53:11;34.80;;;15.57;;
57800;SDS011;43627;42.728;23.256;2023-04-01T03:55:39;33.13;;;14.73;;
57800;SDS011;43627;42.728;23.256;2023-04-01T03:58:06;30.30;;;12.80;;
57800;SDS011;43627;42.728;23.256;2023-04-01T04:00:33;29.90;;;12.77;;
57800;SDS011;43627;42.728;23.256;2023-04-01T04:03:01;27.42;;;11.25;;
57800;SDS011;43627;42.728;23.256;2023-04-01T04:05:28;23.00;;;10.45;;
57800;SDS011;43627;42.728;23.256;2023-04-01T04:07:55;29.38;;;11.55;;
57800;SDS011;43627;42.728;23.256;2023-04-01T04:10:22;21.52;;;10.90;;
57800;SDS011;43627;42.728;23.256;2023-04-01T04:12:49;22.50;;;10.25;;
57800;SDS011;43627;42.728;23.256;2023-04-01T04:15:16;29.05;;;10.82;;
57800;SDS011;43627;42.728;23.256;2023-04-01T04:17:46;18.52;;;9.82;;
57800;SDS011;43627;42.728;23.256;2023-04-01T04:20:14;22.75;;;10.77;;
57800;SDS011;43627;42.728;23.256;2023-04-01T04:22:41;22.20;;;11.05;;
57800;SDS011;43627;42.728;23.256;2023-04-01T04:25:08;22.90;;;10.93;;
57800;SDS011;43627;42.728;23.256;2023-04-01T04:27:35;21.95;;;11.40;;
57800;SDS011;43627;42.728;23.256;2023-04-01T04:30:03;24.10;;;8.88;;
57800;SDS011;43627;42.728;23.256;2023-04-01T04:32:31;20.73;;;8.77;;
57800;SDS011;43627;42.728;23.256;2023-04-01T04:34:58;20.20;;;8.43;;
57800;SDS011;43627;42.728;23.256;2023-04-01T04:37:25;22.15;;;8.75;;
57800;SDS011;43627;42.728;23.256;2023-04-01T04:39:52;28.02;;;10.40;;
57800;SDS011;43627;42.728;23.256;2023-04-01T04:42:18;40.72;;;16.25;;
57800;SDS011;43627;42.728;23.256;2023-04-01T04:44:45;25.55;;;10.00;;
57800;SDS011;43627;42.728;23.256;2023-04-01T04:47:12;23.30;;;9.18;;
57800;SDS011;43627;42.728;23.256;2023-04-01T04:49:39;18.83;;;8.20;;
57800;SDS011;43627;42.728;23.256;2023-04-01T04:52:05;16.80;;;8.52;;
57800;SDS011;43627;42.728;23.256;2023-04-01T04:54:32;19.15;;;8.60;;
57800;SDS011;43627;42.728;23.256;2023-04-01T04:56:59;21.65;;;7.55;;
57800;SDS011;43627;42.728;23.256;2023-04-01T04:59:26;14.48;;;7.07;;
57800;SDS011;43627;42.728;23.256;2023-04-01T05:01:53;14.63;;;7.35;;
57800;SDS011;43627;42.728;23.256;2023-04-01T05:04:20;24.73;;;7.40;;
57800;SDS011;43627;42.728;23.256;2023-04-01T05:06:46;17.30;;;7.60;;
57800;SDS011;43627;42.728;23.256;2023-04-01T05:09:13;16.52;;;7.05;;
57800;SDS011;43627;42.728;23.256;2023-04-01T05:11:41;22.20;;;8.40;;
57800;SDS011;43627;42.728;23.256;2023-04-01T05:14:14;15.43;;;7.00;;
57800;SDS011;43627;42.728;23.256;2023-04-01T05:16:43;19.02;;;7.63;;
57800;SDS011;43627;42.728;23.256;2023-04-01T05:19:10;14.80;;;6.75;;
57800;SDS011;43627;42.728;23.256;2023-04-01T05:21:37;15.15;;;6.63;;
57800;SDS011;43627;42.728;23.256;2023-04-01T05:24:06;16.27;;;7.15;;
57800;SDS011;43627;42.728;23.256;2023-04-01T05:26:34;18.48;;;6.95;;
57800;SDS011;43627;42.728;23.256;2023-04-01T05:29:03;20.02;;;6.93;;
57800;SDS011;43627;42.728;23.256;2023-04-01T05:31:30;18.08;;;7.43;;
57800;SDS011;43627;42.728;23.256;2023-04-01T05:33:57;20.20;;;7.28;;
57800;SDS011;43627;42.728;23.256;2023-04-01T05:36:24;21.05;;;6.82;;
57800;SDS011;43627;42.728;23.256;2023-04-01T05:38:50;17.92;;;8.65;;
57800;SDS011;43627;42.728;23.256;2023-04-01T05:41:21;14.68;;;6.78;;
57800;SDS011;43627;42.728;23.256;2023-04-01T05:43:48;15.20;;;6.63;;
57800;SDS011;43627;42.728;23.256;2023-04-01T05:46:14;15.93;;;5.80;;
57800;SDS011;43627;42.728;23.256;2023-04-01T05:48:41;17.63;;;6.43;;
57800;SDS011;43627;42.728;23.256;2023-04-01T05:51:14;15.32;;;6.30;;
57800;SDS011;43627;42.728;23.256;2023-04-01T05:53:41;18.25;;;6.38;;
57800;SDS011;43627;42.728;23.256;2023-04-01T05:56:08;10.35;;;5.45;;
57800;SDS011;43627;42.728;23.256;2023-04-01T05:58:36;18.35;;;6.55;;
57800;SDS011;43627;42.728;23.256;2023-04-01T06:01:03;11.85;;;5.07;;
57800;SDS011;43627;42.728;23.256;2023-04-01T06:03:39;13.75;;;5.93;;
57800;SDS011;43627;42.728;23.256;2023-04-01T06:06:11;17.33;;;4.50;;
57800;SDS011;43627;42.728;23.256;2023-04-01T06:08:42;15.82;;;7.00;;
57800;SDS011;43627;42.728;23.256;2023-04-01T06:35:44;10.63;;;4.65;;
57800;SDS011;43627;42.728;23.256;2023-04-01T06:43:52;12.05;;;4.07;;
57800;SDS011;43627;42.728;23.256;2023-04-01T06:49:28;12.73;;;4.88;;
57800;SDS011;43627;42.728;23.256;2023-04-01T06:54:47;20.35;;;5.65;;
57800;SDS011;43627;42.728;23.256;2023-04-01T06:57:32;10.70;;;4.20;;
57800;SDS011;43627;42.728;23.256;2023-04-01T07:00:05;15.80;;;5.28;;
57800;SDS011;43627;42.728;23.256;2023-04-01T07:02:52;11.00;;;4.22;;
57800;SDS011;43627;42.728;23.256;2023-04-01T07:05:24;14.35;;;4.75;;
57800;SDS011;43627;42.728;23.256;2023-04-01T07:07:57;8.20;;;3.65;;
57800;SDS011;43627;42.728;23.256;2023-04-01T07:16:28;9.45;;;3.00;;
57800;SDS011;43627;42.728;23.256;2023-04-01T07:19:06;9.38;;;2.88;;
57800;SDS011;43627;42.728;23.256;2023-04-01T07:24:16;8.18;;;3.03;;
57800;SDS011;43627;42.728;23.256;2023-04-01T07:26:46;11.50;;;3.28;;
57800;SDS011;43627;42.728;23.256;2023-04-01T07:29:15;10.48;;;3.13;;
57800;SDS011;43627;42.728;23.256;2023-04-01T07:31:48;7.70;;;3.33;;
57800;SDS011;43627;42.728;23.256;2023-04-01T07:37:13;8.30;;;3.15;;
57800;SDS011;43627;42.728;23.256;2023-04-01T07:50:34;8.05;;;4.13;;
57800;SDS011;43627;42.728;23.256;2023-04-01T07:56:10;9.43;;;4.10;;
57800;SDS011;43627;42.728;23.256;2023-04-01T07:58:45;10.18;;;4.30;;
57800;SDS011;43627;42.728;23.256;2023-04-01T08:07:17;9.25;;;3.63;;
57800;SDS011;43627;42.728;23.256;2023-04-01T08:09:54;11.95;;;3.97;;
57800;SDS011;43627;42.728;23.256;2023-04-01T08:21:03;9.05;;;3.35;;
57800;SDS011;43627;42.728;23.256;2023-04-01T08:23:37;10.10;;;3.85;;
57800;SDS011;43627;42.728;23.256;2023-04-01T08:28:54;11.80;;;3.83;;
57800;SDS011;43627;42.728;23.256;2023-04-01T08:34:28;8.57;;;2.92;;
57800;SDS011;43627;42.728;23.256;2023-04-01T08:37:07;11.32;;;3.17;;
57800;SDS011;43627;42.728;23.256;2023-04-01T08:39:40;10.88;;;3.90;;
57800;SDS011;43627;42.728;23.256;2023-04-01T08:56:34;6.82;;;2.20;;
57800;SDS011;43627;42.728;23.256;2023-04-01T08:59:12;11.32;;;2.80;;
57800;SDS011;43627;42.728;23.256;2023-04-01T09:37:54;8.15;;;2.55;;
57800;SDS011;43627;42.728;23.256;2023-04-01T09:49:26;6.15;;;2.40;;
57800;SDS011;43627;42.728;23.256;2023-04-01T09:58:09;6.07;;;1.83;;
57800;SDS011;43627;42.728;23.256;2023-04-01T10:25:57;7.22;;;1.73;;
57800;SDS011;43627;42.728;23.256;2023-04-01T10:36:55;4.95;;;1.80;;
57800;SDS011;43627;42.728;23.256;2023-04-01T10:42:32;4.10;;;1.98;;
57800;SDS011;43627;42.728;23.256;2023-04-01T12:01:16;4.50;;;1.52;;
57800;SDS011;43627;42.728;23.256;2023-04-01T12:04:00;7.47;;;2.53;;
57800;SDS011;43627;42.728;23.256;2023-04-01T12:12:19;6.30;;;2.75;;
57800;SDS011;43627;42.728;23.256;2023-04-01T12:14:54;10.70;;;3.10;;
57800;SDS011;43627;42.728;23.256;2023-04-01T12:17:44;12.68;;;3.63;;
57800;SDS011;43627;42.728;23.256;2023-04-01T12:36:53;6.15;;;2.47;;
57800;SDS011;43627;42.728;23.256;2023-04-01T12:45:34;9.20;;;2.25;;
57800;SDS011;43627;42.728;23.256;2023-04-01T12:50:52;9.65;;;2.95;;
57800;SDS011;43627;42.728;23.256;2023-04-01T13:07:07;10.60;;;3.63;;
57800;SDS011;43627;42.728;23.256;2023-04-01T13:18:11;7.82;;;2.63;;
57800;SDS011;43627;42.728;23.256;2023-04-01T13:21:01;5.50;;;1.52;;
57800;SDS011;43627;42.728;23.256;2023-04-01T13:26:37;5.15;;;1.70;;
57800;SDS011;43627;42.728;23.256;2023-04-01T13:29:25;4.10;;;1.63;;
57800;SDS011;43627;42.728;23.256;2023-04-01T13:35:11;3.67;;;2.30;;
57800;SDS011;43627;42.728;23.256;2023-04-01T13:37:59;5.05;;;1.88;;
57800;SDS011;43627;42.728;23.256;2023-04-01T13:43:01;5.97;;;2.15;;
57800;SDS011;43627;42.728;23.256;2023-04-01T13:51:09;5.85;;;2.28;;
57800;SDS011;43627;42.728;23.256;2023-04-01T13:57:07;2.28;;;1.65;;
57800;SDS011;43627;42.728;23.256;2023-04-01T14:00:03;4.47;;;1.85;;
57800;SDS011;43627;42.728;23.256;2023-04-01T14:11:21;3.92;;;1.15;;
57800;SDS011;43627;42.728;23.256;2023-04-01T14:36:50;5.40;;;1.70;;
57800;SDS011;43627;42.728;23.256;2023-04-01T14:39:36;6.22;;;2.17;;
57800;SDS011;43627;42.728;23.256;2023-04-01T14:47:42;6.40;;;2.30;;
57800;SDS011;43627;42.728;23.256;2023-04-01T14:50:26;4.63;;;2.13;;
57800;SDS011;43627;42.728;23.256;2023-04-01T14:52:58;5.50;;;2.25;;
57800;SDS011;43627;42.728;23.256;2023-04-01T14:55:52;3.70;;;2.33;;
57800;SDS011;43627;42.728;23.256;2023-04-01T14:58:39;6.03;;;2.90;;
57800;SDS011;43627;42.728;23.256;2023-04-01T15:01:13;5.13;;;2.55;;
57800;SDS011;43627;42.728;23.256;2023-04-01T15:31:33;7.13;;;2.10;;
57800;SDS011;43627;42.728;23.256;2023-04-01T15:34:32;8.02;;;3.10;;
57800;SDS011;43627;42.728;23.256;2023-04-01T15:40:37;11.00;;;3.92;;
57800;SDS011;43627;42.728;23.256;2023-04-01T15:56:59;1.52;;;1.33;;
57800;SDS011;43627;42.728;23.256;2023-04-01T16:13:35;4.00;;;2.72;;
57800;SDS011;43627;42.728;23.256;2023-04-01T16:19:18;4.07;;;2.55;;
57800;SDS011;43627;42.728;23.256;2023-04-01T16:22:19;5.82;;;3.38;;
57800;SDS011;43627;42.728;23.256;2023-04-01T16:30:55;5.25;;;2.88;;
57800;SDS011;43627;42.728;23.256;2023-04-01T16:36:22;5.37;;;2.80;;
57800;SDS011;43627;42.728;23.256;2023-04-01T16:42:16;2.72;;;2.17;;
57800;SDS011;43627;42.728;23.256;2023-04-01T16:44:48;2.45;;;1.60;;
57800;SDS011;43627;42.728;23.256;2023-04-01T16:47:30;1.98;;;1.20;;
57800;SDS011;43627;42.728;23.256;2023-04-01T16:58:57;2.58;;;1.45;;
57800;SDS011;43627;42.728;23.256;2023-04-01T17:01:44;1.38;;;1.27;;
57800;SDS011;43627;42.728;23.256;2023-04-01T17:07:15;1.55;;;1.10;;
57800;SDS011;43627;42.728;23.256;2023-04-01T17:18:14;1.25;;;1.15;;
57800;SDS011;43627;42.728;23.256;2023-04-01T17:23:36;1.40;;;1.10;;
57800;SDS011;43627;42.728;23.256;2023-04-01T17:36:52;1.38;;;1.13;;
57800;SDS011;43627;42.728;23.256;2023-04-01T17:48:15;1.60;;;1.50;;
57800;SDS011;43627;42.728;23.256;2023-04-01T17:53:47;1.63;;;1.30;;
57800;SDS011;43627;42.728;23.256;2023-04-01T18:07:11;1.30;;;1.20;;
57800;SDS011;43627;42.728;23.256;2023-04-01T18:18:35;2.67;;;1.60;;
57800;SDS011;43627;42.728;23.256;2023-04-01T18:23:47;4.78;;;2.13;;
57800;SDS011;43627;42.728;23.256;2023-04-01T18:26:34;2.03;;;1.70;;
57800;SDS011;43627;42.728;23.256;2023-04-01T18:31:45;2.00;;;1.48;;
57800;SDS011;43627;42.728;23.256;2023-04-01T18:34:20;2.33;;;1.83;;
57800;SDS011;43627;42.728;23.256;2023-04-01T18:37:12;3.30;;;1.90;;
57800;SDS011;43627;42.728;23.256;2023-04-01T18:40:25;1.77;;;1.20;;
57800;SDS011;43627;42.728;23.256;2023-04-01T18:43:09;2.78;;;1.73;;
57800;SDS011;43627;42.728;23.256;2023-04-01T18:45:50;1.92;;;1.48;;
57800;SDS011;43627;42.728;23.256;2023-04-01T18:50:58;1.80;;;1.63;;
57800;SDS011;43627;42.728;23.256;2023-04-01T18:53:46;1.85;;;1.70;;
57800;SDS011;43627;42.728;23.256;2023-04-01T19:04:40;3.72;;;2.08;;
57800;SDS011;43627;42.728;23.256;2023-04-01T19:10:23;4.82;;;2.35;;
57800;SDS011;43627;42.728;23.256;2023-04-01T19:13:11;4.13;;;2.47;;
57800;SDS011;43627;42.728;23.256;2023-04-01T19:15:51;3.10;;;2.55;;
57800;SDS011;43627;42.728;23.256;2023-04-01T19:18:43;3.63;;;1.90;;
57800;SDS011;43627;42.728;23.256;2023-04-01T19:21:31;4.05;;;2.08;;
57800;SDS011;43627;42.728;23.256;2023-04-01T19:32:57;1.15;;;0.75;;
57800;SDS011;43627;42.728;23.256;2023-04-01T19:41:04;1.80;;;1.20;;
57800;SDS011;43627;42.728;23.256;2023-04-01T19:46:36;2.65;;;1.75;;
57800;SDS011;43627;42.728;23.256;2023-04-01T19:54:55;2.40;;;1.45;;
57800;SDS011;43627;42.728;23.256;2023-04-01T20:28:01;2.15;;;1.35;;
57800;SDS011;43627;42.728;23.256;2023-04-01T20:36:36;2.88;;;1.50;;
57800;SDS011;43627;42.728;23.256;2023-04-01T20:47:40;2.65;;;1.50;;
57800;SDS011;43627;42.728;23.256;2023-04-01T20:50:31;2.83;;;1.52;;
57800;SDS011;43627;42.728;23.256;2023-04-01T20:53:11;1.45;;;1.20;;
57800;SDS011;43627;42.728;23.256;2023-04-01T20:58:58;2.00;;;1.27;;
57800;SDS011;43627;42.728;23.256;2023-04-01T21:02:02;2.63;;;1.30;;
57800;SDS011;43627;42.728;23.256;2023-04-01T21:10:33;1.95;;;1.27;;
57800;SDS011;43627;42.728;23.256;2023-04-01T21:23:55;3.70;;;1.23;;
57800;SDS011;43627;42.728;23.256;2023-04-01T21:26:52;2.03;;;1.27;;
57800;SDS011;43627;42.728;23.256;2023-04-01T21:41:46;2.55;;;0.88;;
57800;SDS011;43627;42.728;23.256;2023-04-01T21:44:54;1.00;;;0.70;;
57800;SDS011;43627;42.728;23.256;2023-04-01T22:02:04;2.30;;;0.90;;
57800;SDS011;43627;42.728;23.256;2023-04-01T22:08:02;1.92;;;0.90;;
57800;SDS011;43627;42.728;23.256;2023-04-01T22:13:35;0.70;;;0.70;;
57800;SDS011;43627;42.728;23.256;2023-04-01T22:16:16;0.68;;;0.63;;
57800;SDS011;43627;42.728;23.256;2023-04-01T22:21:24;2.03;;;0.80;;
57800;SDS011;43627;42.728;23.256;2023-04-01T22:26:44;1.45;;;0.90;;
57800;SDS011;43627;42.728;23.256;2023-04-01T22:34:27;1.80;;;1.10;;
57800;SDS011;43627;42.728;23.256;2023-04-01T22:42:19;2.33;;;1.17;;
57800;SDS011;43627;42.728;23.256;2023-04-01T22:56:27;1.88;;;1.02;;
57800;SDS011;43627;42.728;23.256;2023-04-01T22:59:15;2.85;;;0.77;;
57800;SDS011;43627;42.728;23.256;2023-04-01T23:01:51;0.93;;;0.85;;
57800;SDS011;43627;42.728;23.256;2023-04-01T23:04:24;1.45;;;0.88;;
57800;SDS011;43627;42.728;23.256;2023-04-01T23:06:57;1.80;;;1.00;;
57800;SDS011;43627;42.728;23.256;2023-04-01T23:09:31;1.25;;;0.60;;
57800;SDS011;43627;42.728;23.256;2023-04-01T23:14:37;2.28;;;0.93;;
57800;SDS011;43627;42.728;23.256;2023-04-01T23:25:44;0.75;;;0.70;;
57800;SDS011;43627;42.728;23.256;2023-04-01T23:30:46;1.48;;;0.40;;
57800;SDS011;43627;42.728;23.256;2023-04-01T23:38:16;0.60;;;0.30;;
57800;SDS011;43627;42.728;23.256;2023-04-01T23:40:45;0.95;;;0.52;;
57800;SDS011;43627;42.728;23.256;2023-04-01T23:46:01;1.27;;;0.68;;
57800;SDS011;43627;42.728;23.256;2023-04-01T23:48:45;2.63;;;0.88;;
57800;SDS011;43627;42.728;23.256;2023-04-01T23:51:13;2.92;;;1.17;;
57800;SDS011;43627;42.728;23.256;2023-04-01T23:53:46;3.50;;;1.33;;
57800;SDS011;43627;42.728;23.256;2023-04-01T23:56:21;5.35;;;1.17;;
57800;SDS011;43627;42.728;23.256;2023-04-01T23:58:48;2.75;;;1.17;;
